createdAt,value
2019-01-15T00:02:23.855Z,98552.75
2019-01-15T00:07:14.617Z,98566.63
2019-01-15T00:12:07.977Z,98572.16
2019-01-15T00:16:58.319Z,98583.18
2019-01-15T00:21:50.202Z,98590.18
2019-01-15T00:26:42.248Z,98589.55
2019-01-15T00:31:33.886Z,98594.12
2019-01-15T00:36:24.923Z,98599.67
2019-01-15T00:41:15.881Z,98608.70
2019-01-15T00:46:06.329Z,98607.80
2019-01-15T00:50:57.926Z,98603.48
2019-01-15T00:55:48.233Z,98603.47
2019-01-15T01:00:39.523Z,98604.04
2019-01-15T01:05:31.994Z,98601.27
2019-01-15T01:10:25.949Z,98606.53
2019-01-15T01:15:41.385Z,98603.87
2019-01-15T01:20:40.035Z,98605.98
2019-01-15T01:25:31.020Z,98596.55
2019-01-15T01:30:26.186Z,98592.13
2019-01-15T01:35:18.028Z,98592.61
2019-01-15T01:40:11.485Z,98588.19
2019-01-15T01:45:04.017Z,98593.92
2019-01-15T01:49:54.329Z,98590.73
2019-01-15T01:54:45.417Z,98583.39
2019-01-15T01:59:36.497Z,98581.92
2019-01-15T02:04:27.347Z,98582.55
2019-01-15T02:09:18.646Z,98579.80
2019-01-15T02:14:10.482Z,98580.27
2019-01-15T02:19:01.834Z,98586.42
2019-01-15T02:23:52.889Z,98591.05
2019-01-15T02:28:44.485Z,98588.33
2019-01-15T02:33:36.568Z,98593.09
2019-01-15T02:38:28.425Z,98586.03
2019-01-15T02:43:19.734Z,98588.08
2019-01-15T02:48:11.579Z,98577.63
2019-01-15T02:53:02.694Z,98577.23
2019-01-15T02:58:20.646Z,98585.53
2019-01-15T03:03:17.873Z,98590.62
2019-01-15T03:08:09.675Z,98573.47
2019-01-15T03:13:00.764Z,98571.95
2019-01-15T03:17:51.039Z,98565.77
2019-01-15T03:22:44.394Z,98569.66
2019-01-15T03:27:35.237Z,98581.52
2019-01-15T03:32:26.617Z,98581.61
2019-01-15T03:37:21.225Z,98570.00
2019-01-15T03:42:12.578Z,98555.23
2019-01-15T03:47:03.405Z,98556.73
2019-01-15T03:51:55.009Z,98560.93
2019-01-15T03:56:46.843Z,98571.78
2019-01-15T04:01:39.463Z,98576.14
2019-01-15T04:06:32.674Z,98597.79
2019-01-15T04:11:25.170Z,98611.52
2019-01-15T04:16:16.259Z,98632.39
2019-01-15T04:21:07.169Z,98638.87
2019-01-15T04:25:58.630Z,98640.42
2019-01-15T04:30:49.261Z,98651.34
2019-01-15T04:35:40.227Z,98650.67
2019-01-15T04:40:31.120Z,98669.19
2019-01-15T04:45:24.309Z,98668.34
2019-01-15T04:50:15.050Z,98671.27
2019-01-15T04:55:06.395Z,98679.83
2019-01-15T04:59:59.288Z,98710.08
2019-01-15T05:05:24.538Z,98721.69
2019-01-15T05:10:42.934Z,98722.02
2019-01-15T05:16:11.454Z,98720.77
2019-01-15T05:21:32.483Z,98705.52
2019-01-15T05:26:28.319Z,98689.59
2019-01-15T05:31:19.077Z,98685.08
2019-01-15T05:36:09.406Z,98709.66
2019-01-15T05:41:01.253Z,98715.88
2019-01-15T05:45:53.602Z,98678.52
2019-01-15T05:50:54.378Z,98719.70
2019-01-15T05:55:45.974Z,98732.02
2019-01-15T06:00:41.990Z,98733.94
2019-01-15T06:05:44.480Z,98764.84
2019-01-15T06:10:42.059Z,98768.03
2019-01-15T06:15:34.840Z,98777.47
2019-01-15T06:20:33.364Z,98778.89
2019-01-15T06:25:28.664Z,98801.32
2019-01-15T06:30:19.760Z,98800.38
2019-01-15T06:35:10.554Z,98802.86
2019-01-15T06:40:08.242Z,98817.78
2019-01-15T06:45:04.309Z,98816.59
2019-01-15T06:50:03.298Z,98826.00
2019-01-15T06:54:56.055Z,98828.95
2019-01-15T06:59:46.343Z,98828.48
2019-01-15T07:04:43.893Z,98836.30
2019-01-15T07:09:32.935Z,98848.04
2019-01-15T07:14:26.570Z,98856.05
2019-01-15T07:19:17.809Z,98861.19
2019-01-15T07:24:11.159Z,98872.70
2019-01-15T07:29:03.828Z,98864.47
2019-01-15T07:33:54.638Z,98895.30
2019-01-15T07:38:45.995Z,98872.81
2019-01-15T07:43:36.766Z,98887.88
2019-01-15T07:48:28.135Z,98887.73
2019-01-15T07:53:20.755Z,98901.95
2019-01-15T07:58:13.776Z,98911.28
2019-01-15T08:03:06.494Z,98930.41
2019-01-15T08:07:57.096Z,98944.73
2019-01-15T08:12:47.627Z,98947.73
2019-01-15T08:17:38.408Z,98962.40
2019-01-15T08:22:56.469Z,98965.64
2019-01-15T08:27:53.602Z,98971.95
2019-01-15T08:32:43.913Z,98963.25
2019-01-15T08:37:36.494Z,98979.19
2019-01-15T08:42:27.312Z,98971.71
2019-01-15T08:47:20.039Z,98970.37
2019-01-15T08:52:38.830Z,98958.66
2019-01-15T08:57:58.827Z,98958.66
2019-01-15T09:03:18.309Z,98953.09
2019-01-15T09:08:40.224Z,98959.16
2019-01-15T09:14:07.680Z,98959.16
2019-01-15T09:19:18.187Z,98956.61
2019-01-15T09:24:36.505Z,98966.58
2019-01-15T09:29:54.381Z,98978.91
2019-01-15T09:35:18.335Z,98985.09
2019-01-15T09:40:40.390Z,98993.75
2019-01-15T09:46:00.865Z,98986.73
2019-01-15T09:51:22.086Z,98984.70
2019-01-15T09:56:43.551Z,98966.56
2019-01-15T10:02:04.680Z,98953.65
2019-01-15T10:07:25.801Z,98942.00
2019-01-15T10:12:50.294Z,98945.72
2019-01-15T10:18:11.289Z,98957.66
2019-01-15T10:23:32.909Z,98962.38
2019-01-15T10:28:57.448Z,98952.95
2019-01-15T10:34:28.330Z,98959.05
2019-01-15T10:39:22.309Z,98970.52
2019-01-15T10:44:12.595Z,98973.83
2019-01-15T10:49:05.845Z,98973.16
2019-01-15T10:53:59.376Z,98974.16
2019-01-15T10:58:50.194Z,98972.78
2019-01-15T11:03:41.785Z,98982.80
2019-01-15T11:08:34.806Z,98984.81
2019-01-15T11:13:25.472Z,98969.80
2019-01-15T11:18:19.064Z,98978.94
2019-01-15T11:23:12.739Z,98978.94
2019-01-15T11:28:06.885Z,98991.56
2019-01-15T11:33:00.544Z,98999.12
2019-01-15T11:37:53.628Z,98992.75
2019-01-15T11:42:46.512Z,98994.69
2019-01-15T11:47:38.376Z,98998.34
2019-01-15T11:52:29.053Z,98998.34
2019-01-15T11:57:21.761Z,98994.83
2019-01-15T12:02:22.512Z,99003.73
2019-01-15T12:07:37.210Z,99007.92
2019-01-15T12:12:49.895Z,99009.75
2019-01-15T12:18:01.106Z,99033.08
2019-01-15T12:23:28.787Z,99035.81
2019-01-15T12:28:52.612Z,99028.75
2019-01-15T12:34:02.633Z,99035.14
2019-01-15T12:39:17.273Z,99046.27
2019-01-15T12:44:27.788Z,99038.64
2019-01-15T12:49:33.457Z,99059.31
2019-01-15T12:54:41.432Z,99061.23
2019-01-15T12:59:49.424Z,99072.07
2019-01-15T13:05:07.578Z,99085.34
2019-01-15T13:10:20.744Z,99094.83
2019-01-15T13:15:34.529Z,99095.21
2019-01-15T13:20:49.187Z,99115.06
2019-01-15T13:25:52.090Z,99113.84
2019-01-15T13:31:16.161Z,99105.09
2019-01-15T13:36:39.697Z,99105.09
2019-01-15T13:42:03.565Z,99115.27
2019-01-15T13:47:11.537Z,99136.92
2019-01-15T13:52:29.778Z,99111.84
2019-01-15T13:57:39.314Z,99111.84
2019-01-15T14:02:51.072Z,99148.15
2019-01-15T14:08:00.576Z,99150.55
2019-01-15T14:13:18.810Z,99161.13
2019-01-15T14:18:31.134Z,99165.23
2019-01-15T14:23:40.639Z,99160.55
2019-01-15T14:29:07.809Z,99171.45
2019-01-15T14:34:19.614Z,99177.57
2019-01-15T14:39:33.478Z,99183.09
2019-01-15T14:45:00.398Z,99193.64
2019-01-15T14:50:25.004Z,99191.06
2019-01-15T14:55:47.335Z,99195.23
2019-01-15T15:00:54.744Z,99195.23
2019-01-15T15:06:10.400Z,99211.22
2019-01-15T15:11:25.556Z,99211.22
2019-01-15T15:16:35.068Z,99218.56
2019-01-15T15:21:59.712Z,99229.35
2019-01-15T15:27:11.458Z,99231.44
2019-01-15T15:32:21.250Z,99247.67
2019-01-15T15:37:48.169Z,99259.25
2019-01-15T15:43:11.224Z,99259.25
2019-01-15T15:48:23.907Z,99264.55
2019-01-15T15:53:39.478Z,99246.55
2019-01-15T15:59:00.483Z,99256.34
2019-01-15T16:04:10.267Z,99276.77
2019-01-15T16:09:28.714Z,99282.36
2019-01-15T16:14:47.176Z,99296.08
2019-01-15T16:20:02.092Z,99300.02
2019-01-15T16:25:27.067Z,99311.34
2019-01-15T16:30:42.333Z,99320.64
2019-01-15T16:35:55.784Z,99335.06
2019-01-15T16:41:23.317Z,99337.20
2019-01-15T16:46:30.617Z,99337.69
2019-01-15T16:51:39.570Z,99338.25
2019-01-15T16:57:05.218Z,99345.30
2019-01-15T17:02:14.467Z,99349.78
2019-01-15T17:07:41.971Z,99360.25
2019-01-15T17:12:54.717Z,99360.34
2019-01-15T17:18:09.850Z,99383.53
2019-01-15T17:23:16.818Z,99394.91
2019-01-15T17:28:37.976Z,99404.52
2019-01-15T17:33:43.895Z,99401.54
2019-01-15T17:38:53.257Z,99419.93
2019-01-15T17:44:01.754Z,99430.36
2019-01-15T17:49:24.048Z,99430.72
2019-01-15T17:54:38.084Z,99436.31
2019-01-15T18:00:00.999Z,99445.18
2019-01-15T18:05:27.402Z,99457.88
2019-01-15T18:10:39.213Z,99463.47
2019-01-15T18:15:46.902Z,99472.04
2019-01-15T18:21:02.556Z,99477.27
2019-01-15T18:26:28.214Z,99480.81
2019-01-15T18:31:55.000Z,99484.52
2019-01-15T18:37:03.341Z,99485.55
2019-01-15T18:42:22.339Z,99492.65
2019-01-15T18:47:30.045Z,99496.00
2019-01-15T18:52:44.144Z,99498.75
2019-01-15T18:57:57.271Z,99490.84
2019-01-15T19:03:06.237Z,99504.48
2019-01-15T19:08:15.501Z,99509.62
2019-01-15T19:13:21.145Z,99519.52
2019-01-15T19:18:28.604Z,99510.94
2019-01-15T19:23:50.147Z,99527.70
2019-01-15T19:29:05.836Z,99535.38
2019-01-15T19:34:20.675Z,99540.09
2019-01-15T19:39:47.232Z,99540.81
2019-01-15T19:45:22.450Z,99543.27
2019-01-15T19:50:57.111Z,99559.66
2019-01-15T19:56:08.634Z,99563.28
2019-01-15T20:01:44.849Z,99564.24
2019-01-15T20:07:12.355Z,99566.14
2019-01-15T20:13:15.292Z,99574.84
2019-01-15T20:18:55.850Z,99577.41
2019-01-15T20:24:49.807Z,99575.81
2019-01-15T20:30:46.382Z,99589.20
2019-01-15T20:36:15.935Z,99592.27
2019-01-15T20:41:54.424Z,99600.25
2019-01-15T20:47:25.804Z,99613.20
2019-01-15T20:53:03.179Z,99609.58
2019-01-15T20:58:35.595Z,99618.57
2019-01-15T21:04:10.630Z,99623.42
2019-01-15T21:10:01.250Z,99627.56
2019-01-15T21:15:36.481Z,99632.48
2019-01-15T21:21:08.773Z,99627.16
2019-01-15T21:26:56.044Z,99628.42
2019-01-15T21:32:29.798Z,99630.58
2019-01-15T21:38:08.481Z,99627.97
2019-01-15T21:43:56.902Z,99623.55
2019-01-15T21:49:36.332Z,99628.39
2019-01-15T21:55:17.612Z,99636.33
2019-01-15T22:00:49.579Z,99642.23
2019-01-15T22:06:32.329Z,99647.97
2019-01-15T22:12:19.319Z,99659.59
2019-01-15T22:17:47.566Z,99664.58
2019-01-15T22:23:29.175Z,99671.89
2019-01-15T22:29:16.285Z,99681.16
2019-01-15T22:34:51.532Z,99680.41
2019-01-15T22:40:34.855Z,99690.66
2019-01-15T22:46:08.877Z,99691.11
2019-01-15T22:52:03.315Z,99701.20
2019-01-15T22:57:39.826Z,99711.57
2019-01-15T23:03:11.514Z,99707.03
2019-01-15T23:08:51.364Z,99712.44
2019-01-15T23:14:29.979Z,99710.14
2019-01-15T23:20:17.442Z,99716.73
2019-01-15T23:25:59.133Z,99720.78
2019-01-15T23:31:30.563Z,99725.75
2019-01-15T23:37:10.339Z,99735.86
2019-01-15T23:42:41.669Z,99735.45
2019-01-15T23:48:12.206Z,99745.57
2019-01-15T23:53:56.874Z,99743.23
2019-01-15T23:59:30.775Z,99752.77
